Latest Weather Observations for Mallacoota

IDV60801

Issued at 2:02 pm EST Wednesday 8 July 2015 (issued every 30 minutes, with the page automatically refreshed every 10 minutes)

About weather observations | Map of weather stations | Latest weather observations for VIC | Other Formats
Station Details ID: 084084 Name: MALLACOOTA Lat: -37.60 Lon: 149.73 Height: 22.0 m
Data from the previous 72 hours. | See also: Recent months at Mallacoota
Date/Time
EST
Temp
°C
App
Temp
°C
Dew
Point
Rel
Hum
%
Delta-T
°C
Wind Press
QNH
hPa
Press
MSL
hPa
Rain
since 9 am
mm
Dir
 
Spd
km/h
Gust
km/h
Spd
kts
Gust
kts
08/02:00pm 13.0 10.2 8.7 75 2.1 ENE 13 17 7 9 1027.5 - 0.0
08/01:30pm 12.5 9.7 8.6 77 1.9 ENE 13 20 7 11 1027.7 - 0.0
08/01:00pm 11.8 8.6 6.7 71 2.4 ENE 13 19 7 10 1027.9 - 0.0
08/12:30pm 12.5 10.1 7.2 70 2.6 E 9 11 5 6 1028.3 - 0.0
08/12:00pm 12.9 10.9 6.9 67 2.9 NNE 7 13 4 7 1028.5 1028.6 0.0
08/11:30am 12.2 9.9 7.3 72 2.4 N 9 13 5 7 1028.8 - 0.0
08/11:00am 11.6 10.1 9.0 84 1.3 N 7 11 4 6 1029.2 - 0.0
08/10:30am 10.0 7.9 8.4 90 0.8 WNW 9 11 5 6 1029.4 - 0.0
08/10:00am 8.2 5.0 7.0 92 0.6 NW 13 17 7 9 1029.4 - 0.0
08/09:30am 7.0 3.2 5.9 93 0.5 NW 15 19 8 10 1029.2 - 0.0
08/09:00am 5.3 2.0 4.4 94 0.4 NW 11 15 6 8 1029.1 1029.2 5.8
08/08:30am 5.2 1.5 4.3 94 0.4 WNW 13 19 7 10 1028.7 - 5.8
08/08:00am 4.4 0.5 3.5 94 0.4 WNW 13 15 7 8 1028.7 - 5.8
08/07:30am 4.3 0.8 3.4 94 0.4 WNW 11 15 6 8 1028.4 - 5.8
08/07:00am 4.5 0.3 3.6 94 0.4 WNW 15 20 8 11 1028.0 - 5.8
08/06:30am 4.7 0.9 3.8 94 0.4 WNW 13 17 7 9 1027.7 - 5.8
08/06:00am 4.5 0.3 3.6 94 0.4 WNW 15 19 8 10 1027.5 1027.6 5.8
08/05:30am 4.5 0.6 3.6 94 0.4 NW 13 20 7 11 1027.4 - 5.8
08/05:00am 4.7 2.0 3.8 94 0.4 N 7 9 4 5 1027.4 - 5.8
08/04:30am 5.3 2.3 4.3 93 0.4 NW 9 13 5 7 1027.2 - 5.8
08/04:00am 5.8 2.5 4.8 93 0.4 WNW 11 15 6 8 1027.1 - 5.8
08/03:30am 6.0 2.8 5.0 93 0.4 WNW 11 15 6 8 1027.0 - 5.8
08/03:00am 6.3 3.1 5.3 93 0.4 WNW 11 13 6 7 1027.0 1027.1 5.8
08/02:30am 7.1 4.1 6.0 93 0.5 W 11 13 6 7 1027.0 - 5.8
08/02:00am 7.9 4.7 6.8 93 0.5 NW 13 17 7 9 1027.0 - 5.8
08/01:30am 8.0 6.0 6.9 93 0.5 NW 7 11 4 6 1026.9 - 5.6
08/01:00am 8.0 5.2 6.9 93 0.5 WNW 11 13 6 7 1026.7 - 4.4
08/12:30am 7.9 5.5 6.8 93 0.5 WNW 9 11 5 6 1026.6 - 3.2
08/12:00am 8.0 5.6 6.9 93 0.5 WNW 9 13 5 7 1026.7 1026.8 3.2
 
Date/Time
EST
Temp
°C
App
Temp
°C
Dew
Point
Rel
Hum
%
Delta-T
°C
Wind Press
QNH
hPa
Press
MSL
hPa
Rain
since 9 am
mm
Dir
 
Spd
km/h
Gust
km/h
Spd
kts
Gust
kts
07/11:30pm 7.7 5.2 6.5 92 0.5 W 9 13 5 7 1026.8 - 2.0
07/11:00pm 7.7 5.2 6.5 92 0.5 WNW 9 15 5 8 1026.7 - 2.0
07/10:30pm 7.7 5.1 6.3 91 0.6 WNW 9 13 5 7 1026.4 - 1.8
07/10:00pm 7.9 5.0 6.5 91 0.6 WNW 11 15 6 8 1026.3 - 0.4
07/09:30pm 8.2 5.8 6.8 91 0.6 WNW 9 11 5 6 1026.0 - 0.2
07/09:00pm 8.0 5.5 6.5 90 0.7 W 9 15 5 8 1026.0 1026.1 0.2
07/08:30pm 7.8 5.2 6.1 89 0.8 WNW 9 13 5 7 1025.8 - 0.0
07/08:00pm 7.5 4.0 5.6 88 0.8 WNW 13 17 7 9 1025.6 - 0.0
07/07:30pm 9.4 5.6 7.7 89 0.8 S 17 24 9 13 1025.3 - 0.0
07/07:00pm 7.9 4.9 6.0 88 0.9 WNW 11 15 6 8 1025.0 - 0.0
07/06:30pm 8.3 6.0 5.9 85 1.1 W 7 9 4 5 1024.7 - 0.0
07/06:00pm 9.4 6.5 6.3 81 1.4 SW 11 17 6 9 1024.4 1024.5 0.0
07/05:30pm 9.4 7.0 5.4 76 1.8 W 7 11 4 6 1023.9 - 0.0
07/05:00pm 10.1 7.4 5.5 73 2.1 W 9 13 5 7 1023.7 - 0.0
07/04:30pm 11.0 7.2 5.7 70 2.5 SW 15 24 8 13 1023.3 - 0.0
07/04:00pm 12.0 8.0 6.5 69 2.6 SSW 17 35 9 19 1022.9 - 0.0
07/03:30pm 12.7 8.7 6.5 66 3.0 SSW 17 26 9 14 1022.7 - 0.0
07/03:00pm 12.4 9.0 5.8 64 3.1 SW 13 20 7 11 1022.4 1022.5 0.0
07/02:30pm 13.3 9.2 6.2 62 3.4 SSW 17 24 9 13 1022.0 - 0.0
07/02:00pm 13.5 9.1 6.4 62 3.4 SSW 19 28 10 15 1021.8 - 0.0
07/01:30pm 13.8 10.6 6.7 62 3.4 SSW 13 20 7 11 1021.8 - 0.0
07/01:00pm 13.9 11.0 6.7 62 3.5 SSW 11 17 6 9 1021.9 - 0.0
07/12:30pm 13.7 9.4 5.3 57 3.9 SSW 17 24 9 13 1021.9 - 0.0
07/12:00pm 13.9 10.2 6.3 60 3.6 SSW 15 26 8 14 1022.1 1022.2 0.0
07/11:30am 13.3 9.1 5.5 59 3.7 SSW 17 24 9 13 1022.2 - 0.0
07/11:00am 12.9 8.6 5.3 60 3.5 S 17 28 9 15 1022.3 - 0.0
07/10:30am 13.2 11.1 8.1 71 2.5 SW 9 15 5 8 1022.2 - 0.0
07/10:00am 11.6 8.8 7.1 74 2.2 W 11 15 6 8 1022.1 - 0.0
07/09:30am 11.2 8.9 7.3 77 1.9 SW 9 15 5 8 1021.7 - 0.0
07/09:00am 10.6 7.7 6.4 75 2.0 SW 11 24 6 13 1021.3 1021.4 25.8
07/08:30am 12.4 7.4 3.6 55 3.9 SSW 19 30 10 16 1020.9 - 25.8
07/08:00am 12.3 6.5 4.5 59 3.5 S 24 35 13 19 1020.6 - 25.8
07/07:30am 12.0 7.6 5.0 62 3.2 SSW 17 30 9 16 1020.3 - 25.8
07/07:00am 12.4 6.5 5.8 64 3.1 S 26 39 14 21 1019.8 - 25.8
07/06:30am 11.9 7.0 5.3 64 3.0 SSW 20 33 11 18 1019.2 - 25.8
07/06:00am 11.8 7.7 6.1 68 2.7 SSW 17 28 9 15 1018.7 1018.7 25.8
07/05:30am 12.1 7.3 5.5 64 3.1 SSW 20 33 11 18 1018.3 - 25.8
07/05:00am 12.0 7.5 6.1 67 2.8 SSW 19 35 10 19 1018.0 - 25.8
07/04:30am 10.3 7.8 6.6 78 1.7 W 9 19 5 10 1017.7 - 25.8
07/04:00am 12.2 7.6 6.7 69 2.6 S 20 35 11 19 1017.5 - 25.8
07/03:30am 11.0 8.0 7.5 79 1.7 WSW 13 26 7 14 1017.4 - 25.8
07/03:00am 11.4 8.2 6.9 74 2.1 W 13 35 7 19 1017.3 1017.3 25.8
07/02:30am 11.9 7.6 9.5 85 1.2 SE 22 35 12 19 1016.9 - 25.8
07/02:00am 11.6 8.4 10.0 90 0.8 S 17 30 9 16 1016.8 - 25.6
07/01:30am 9.6 7.2 8.5 93 0.5 WNW 11 19 6 10 1016.5 - 25.6
07/01:00am 9.3 6.8 8.1 92 0.6 W 11 19 6 10 1016.6 - 21.8
07/12:30am 9.3 6.0 8.1 92 0.6 W 15 24 8 13 1016.5 - 9.4
07/12:00am 9.5 5.8 8.1 91 0.7 WSW 17 28 9 15 1016.3 1016.3 4.4
 
Date/Time
EST
Temp
°C
App
Temp
°C
Dew
Point
Rel
Hum
%
Delta-T
°C
Wind Press
QNH
hPa
Press
MSL
hPa
Rain
since 9 am
mm
Dir
 
Spd
km/h
Gust
km/h
Spd
kts
Gust
kts
06/11:30pm 9.7 6.8 8.0 89 0.8 WSW 13 22 7 12 1016.1 - 1.6
06/11:00pm 9.9 6.2 7.8 87 1.0 WSW 17 26 9 14 1015.9 - 0.2
06/10:30pm 10.3 5.6 7.7 84 1.2 WSW 22 41 12 22 1015.3 - 0.0
06/10:00pm 10.4 6.0 7.5 82 1.4 W 20 37 11 20 1015.1 - 0.0
06/09:30pm 10.4 6.2 7.3 81 1.5 W 19 30 10 16 1015.0 - 0.0
06/09:00pm 10.3 6.3 6.8 79 1.6 W 17 32 9 17 1015.0 1015.0 0.0
06/08:30pm 10.6 6.3 7.1 79 1.7 W 19 28 10 15 1014.9 - 0.0
06/08:00pm 10.6 6.7 6.9 78 1.8 W 17 32 9 17 1014.7 - 0.0
06/07:30pm 10.6 6.7 6.9 78 1.8 W 17 26 9 14 1014.7 - 0.0
06/07:00pm 10.9 6.6 6.8 76 1.9 W 19 35 10 19 1014.6 - 0.0
06/06:30pm 11.1 7.1 6.6 74 2.1 WSW 17 26 9 14 1014.5 - 0.0
06/06:00pm 10.9 7.3 6.8 76 1.9 W 15 28 8 15 1014.4 1014.4 0.0
06/05:30pm 11.0 7.0 6.7 75 2.0 W 17 30 9 16 1014.1 - 0.0
06/05:00pm 10.9 7.6 6.6 75 2.0 W 13 28 7 15 1013.8 - 0.0
06/04:30pm 11.4 7.0 6.5 72 2.3 WSW 19 28 10 15 1013.7 - 0.0
06/04:00pm 12.1 8.8 6.4 68 2.7 WSW 13 22 7 12 1013.5 - 0.0
06/03:30pm 12.4 9.1 6.5 67 2.8 WSW 13 24 7 13 1013.3 - 0.0
06/03:00pm 12.6 9.3 6.6 67 2.9 WSW 13 20 7 11 1013.0 1013.0 0.0
06/02:30pm 13.2 9.5 6.5 64 3.2 WSW 15 24 8 13 1012.9 - 0.0
06/02:00pm 13.5 9.8 6.4 62 3.4 WSW 15 30 8 16 1012.9 - 0.0
06/01:30pm 13.6 9.5 6.2 61 3.5 WSW 17 32 9 17 1013.1 - 0.0
06/01:00pm 14.7 11.3 6.0 56 4.2 SW 13 28 7 15 1013.2 - 0.0
06/12:30pm 14.1 10.8 6.5 60 3.7 WSW 13 22 7 12 1013.5 - 0.0
06/12:00pm 14.9 11.1 6.0 55 4.3 WSW 15 24 8 13 1013.7 1013.7 0.0
06/11:30am 14.2 10.4 5.6 56 4.1 SW 15 22 8 12 1014.0 - 0.0
06/11:00am 14.7 11.5 7.0 60 3.8 W 13 20 7 11 1014.2 - 0.0
06/10:30am 13.4 10.5 6.7 64 3.2 W 11 19 6 10 1014.4 - 0.0
06/10:00am 12.3 9.9 7.0 70 2.5 WNW 9 17 5 9 1014.5 - 0.0
06/09:30am 10.8 8.6 7.7 81 1.5 WNW 9 15 5 8 1014.7 - 0.0
06/09:00am 9.2 6.9 7.5 89 0.8 WNW 9 17 5 9 1014.7 1014.7 0.0
06/08:30am 7.5 5.3 6.4 93 0.5 NW 7 13 4 7 1014.6 - 0.0
06/08:00am 5.3 2.3 4.3 93 0.4 NNW 9 11 5 6 1014.7 - 0.0
06/07:30am 4.7 1.6 3.7 93 0.4 NW 9 13 5 7 1014.6 - 0.0
06/07:00am 4.9 1.9 3.9 93 0.4 NW 9 13 5 7 1014.6 - 0.0
06/06:30am 4.8 2.1 3.8 93 0.4 NNW 7 9 4 5 1014.5 - 0.0
06/06:00am 5.2 2.6 4.2 93 0.4 NW 7 11 4 6 1014.5 1014.5 0.0
06/05:30am 5.9 2.7 4.9 93 0.4 NW 11 13 6 7 1014.5 - 0.0
06/05:00am 6.0 2.8 5.0 93 0.4 NW 11 15 6 8 1014.5 - 0.0
06/04:30am 6.4 3.3 5.4 93 0.4 NW 11 15 6 8 1014.5 - 0.0
06/04:00am 6.2 3.8 5.2 93 0.4 WNW 7 11 4 6 1014.7 - 0.0
06/03:30am 6.1 3.6 4.9 92 0.5 WSW 7 11 4 6 1014.8 - 0.0
06/03:00am 6.9 3.5 5.7 92 0.5 WNW 13 17 7 9 1015.0 1015.0 0.0
06/02:30am 7.1 4.1 5.9 92 0.5 WNW 11 15 6 8 1015.3 - 0.0
06/02:00am 7.1 3.7 5.9 92 0.5 NW 13 17 7 9 1015.5 - 0.0
06/01:30am 7.3 3.9 6.1 92 0.5 NW 13 17 7 9 1015.6 - 0.0
06/01:00am 7.4 4.1 6.2 92 0.5 WNW 13 17 7 9 1015.8 - 0.0
06/12:30am 7.7 4.4 6.5 92 0.5 WNW 13 17 7 9 1016.1 - 0.0
06/12:00am 7.8 4.9 6.4 91 0.6 WNW 11 13 6 7 1016.3 1016.3 0.0
 
Date/Time
EST
Temp
°C
App
Temp
°C
Dew
Point
Rel
Hum
%
Delta-T
°C
Wind Press
QNH
hPa
Press
MSL
hPa
Rain
since 9 am
mm
Dir
 
Spd
km/h
Gust
km/h
Spd
kts
Gust
kts
05/11:30pm 8.5 5.4 7.1 91 0.7 WNW 13 15 7 8 1016.4 - 0.0
05/11:00pm 8.1 4.9 6.7 91 0.6 NW 13 17 7 9 1016.5 - 0.0
05/10:30pm 8.1 5.2 6.7 91 0.6 WNW 11 13 6 7 1016.6 - 0.0
05/10:00pm 8.2 5.3 6.7 90 0.7 WNW 11 15 6 8 1016.8 - 0.0
05/09:30pm 8.3 5.5 6.8 90 0.7 WNW 11 13 6 7 1017.0 - 0.0
05/09:00pm 8.9 6.2 7.2 89 0.8 NW 11 13 6 7 1017.1 1017.1 0.0
05/08:30pm 9.6 7.1 8.0 90 0.8 NW 11 15 6 8 1017.4 - 0.0
05/08:00pm 9.0 6.7 7.5 90 0.7 NW 9 13 5 7 1017.5 - 0.0
05/07:30pm 8.9 6.6 7.4 90 0.7 WNW 9 11 5 6 1017.5 - 0.0
05/07:00pm 9.4 7.2 7.7 89 0.8 WNW 9 11 5 6 1017.3 - 0.0
05/06:30pm 10.0 7.9 8.1 88 0.9 WNW 9 9 5 5 1017.2 - 0.0
05/06:00pm 10.8 9.2 8.7 87 1.0 WNW 7 9 4 5 1017.2 1017.2 0.0
05/05:30pm 11.0 9.4 8.8 86 1.1 WNW 7 9 4 5 1017.1 - 0.0
05/05:00pm 11.2 9.5 8.4 83 1.4 W 7 9 4 5 1016.9 - 0.0
05/04:30pm 12.6 11.1 8.3 75 2.1 W 6 6 3 3 1016.9 - 0.0
05/04:00pm 14.4 14.3 9.4 72 2.6 CALM 0 0 0 0 1016.9 - 0.0
05/03:30pm 15.0 14.8 8.9 67 3.1 CALM 0 7 0 4 1016.8 - 0.0
05/03:00pm 14.9 13.5 8.8 67 3.1 ESE 6 7 3 4 1016.8 1016.8 0.0
05/02:30pm 14.8 13.1 8.5 66 3.2 ESE 7 9 4 5 1016.9 - 0.0

Other Formats:

Comma delimited format used in spreadsheet applications
http://www.bom.gov.au/fwo/IDV60801/IDV60801.94935.axf

JavaScript Object Notation format (JSON) in row-major order
http://www.bom.gov.au/fwo/IDV60801/IDV60801.94935.json